WetterOnline ( https://www.wetteronline.de )

Wetter aktuell Spiekeroog

Aktuelles Wetter: Helgoland/Düne (8m)

6-stündlich | Neueste Meldungen
Ortszeit Temperatur Wetter
So, 29.01. 19:00 6.3° C wolkig
So, 29.01. 13:00 5.6° C leichter Regen
So, 29.01. 7:00 5.6° C leichter Regen
So, 29.01. 1:00 6.4° C bewölkt
Sa, 28.01. 19:00 6.2° C bedeckt
Sa, 28.01. 13:00 5.9° C bewölkt
Sa, 28.01. 7:00 2.8° C wolkig
Sa, 28.01. 1:00 2.3° C bedeckt
Ortszeit Temperatur Wetter
So, 29.01. 23:00 6.7° C bedeckt
So, 29.01. 22:50 6.7° C Dunst
So, 29.01. 22:40 6.7° C bedeckt
So, 29.01. 22:30 6.8° C bedeckt
So, 29.01. 22:20 6.8° C bedeckt
So, 29.01. 22:10 6.8° C bedeckt
So, 29.01. 22:00 6.8° C bedeckt
So, 29.01. 21:30 6.7° C bedeckt
So, 29.01. 21:00 6.6° C bedeckt
So, 29.01. 20:30 6.6° C bedeckt
So, 29.01. 20:00 6.7° C bedeckt
Ortszeit Relative Feuchte Sichtweite
So, 29.01. 19:00 87% 10 km
So, 29.01. 13:00 94% 3.4 km
So, 29.01. 7:00 96% 2.4 km
So, 29.01. 1:00 95% 19 km
Sa, 28.01. 19:00 91% 23 km
Sa, 28.01. 13:00 78% 40 km
Sa, 28.01. 7:00 74% 60 km
Sa, 28.01. 1:00 74% 45 km
Ortszeit Relative Feuchte Sichtweite
So, 29.01. 23:00 87% 7 km
So, 29.01. 22:50 87% -
So, 29.01. 22:40 86% -
So, 29.01. 22:30 85% 8 km
So, 29.01. 22:20 85% -
So, 29.01. 22:10 85% -
So, 29.01. 22:00 85% 9 km
So, 29.01. 21:30 83% 9 km
So, 29.01. 21:00 83% 11 km
So, 29.01. 20:30 82% 12 km
So, 29.01. 20:00 80% 14 km
Ortszeit Niederschlagsmenge Niederschlagsart
So, 29.01. 19:00 1 l/m2 in 12 Std. Regen
So, 29.01. 13:00 0.9 l/m2 in 6 Std. Regen
So, 29.01. 7:00 1 l/m2 in 12 Std. Regen
So, 29.01. 1:00 0.4 l/m2 in 6 Std. Regen
Sa, 28.01. 19:00 0.1 l/m2 in 12 Std. Sprühregen
Sa, 28.01. 13:00 0.1 l/m2 in 6 Std. Sprühregen
Sa, 28.01. 7:00 0.0 l/m2 in 12 Std. -
Sa, 28.01. 1:00 0.0 l/m2 in 6 Std. -
Ortszeit Niederschlagsmenge Niederschlagsart
So, 29.01. 23:00 <0.05 l/m2 in 1 Std. Regen
So, 29.01. 22:50 keine Meldung -
So, 29.01. 22:40 keine Meldung -
So, 29.01. 22:30 0.0 l/m2 in 30 Min -
So, 29.01. 22:20 keine Meldung -
So, 29.01. 22:10 keine Meldung -
So, 29.01. 22:00 0.0 l/m2 in 1 Std. -
So, 29.01. 21:30 0.0 l/m2 in 30 Min -
So, 29.01. 21:00 0.0 l/m2 in 1 Std. -
So, 29.01. 20:30 0.0 l/m2 in 30 Min -
So, 29.01. 20:00 0.0 l/m2 in 1 Std. -
Ortszeit Stärke Spitze Richtung
km/h Bft. km/h Grad Sektor
So, 29.01. 19:00 40 6 61 240° SW
So, 29.01. 13:00 37 5 54 240° SW
So, 29.01. 7:00 30 5 41 250° W
So, 29.01. 1:00 22 4 40 260° W
Sa, 28.01. 19:00 17 3 33 270° W
Sa, 28.01. 13:00 22 4 29 260° W
Sa, 28.01. 7:00 9 2 15 270° W
Sa, 28.01. 1:00 7 2 18 160° S
Ortszeit Stärke Spitze Richtung
km/h Bft. km/h Grad Sektor
So, 29.01. 23:00 47 6 68 240° SW
So, 29.01. 22:50 48 6 - 240° SW
So, 29.01. 22:40 48 6 - 240° SW
So, 29.01. 22:30 48 6 67 240° SW
So, 29.01. 22:20 47 6 - 250° W
So, 29.01. 22:10 47 6 - 250° W
So, 29.01. 22:00 44 6 70 250° W
So, 29.01. 21:30 46 6 69 250° W
So, 29.01. 21:00 47 6 72 250° W
So, 29.01. 20:30 47 6 65 250° W
So, 29.01. 20:00 46 6 61 240° SW
Ortszeit Untergrenze Bedeckung Gattung
total tief tief mittel hoch
So, 29.01. 19:00 510 m 8/8 2/8 - - -
So, 29.01. 13:00 150 m 8/8 8/8 - - -
So, 29.01. 7:00 240 m 8/8 8/8 - - -
So, 29.01. 1:00 450 m 7/8 7/8 - - -
Sa, 28.01. 19:00 390 m 8/8 8/8 - - -
Sa, 28.01. 13:00 630 m 7/8 6/8 - - -
Sa, 28.01. 7:00 660 m 8/8 1/8 - - -
Sa, 28.01. 1:00 600 m 8/8 8/8 - - -
Ortszeit Bedeckungsgrad in Achtel und Wolkenuntergrenze
So, 29.01. 23:00 8(360m)
So, 29.01. 22:50 8(360m)
So, 29.01. 22:40 8
So, 29.01. 22:30 7(450m) 8(1500m)
So, 29.01. 22:20 7(450m) 8(1500m)
So, 29.01. 22:10 8
So, 29.01. 22:00 7(450m) 8(1500m)
So, 29.01. 21:30 7(480m) 8(1500m)
So, 29.01. 21:00 8(510m)
So, 29.01. 20:30 8(510m)
So, 29.01. 20:00 7(540m) 8(720m)
Ortszeit Luftdruck NN (hPa) Tendenz (hPa in 3 Std.)
So, 29.01. 19:00 1014 - 2,8
So, 29.01. 13:00 1020 - 2,1
So, 29.01. 7:00 1023 - 1,2
So, 29.01. 1:00 1026 - 0,8
Sa, 28.01. 19:00 1027 0,0
Sa, 28.01. 13:00 1028 - 1,0
Sa, 28.01. 7:00 1029 - 0,5
Sa, 28.01. 1:00 1030 - 0,9
Ortszeit Luftdruck NN (hPa) Tendenz (hPa in 3 Std.)
So, 29.01. 23:00 1010 - 3,3
So, 29.01. 22:50 1010 keine Meldung
So, 29.01. 22:40 1010 keine Meldung
So, 29.01. 22:30 1011 - 3,0
So, 29.01. 22:20 1011 keine Meldung
So, 29.01. 22:10 1011 keine Meldung
So, 29.01. 22:00 1011 - 2,8
So, 29.01. 21:30 1012 - 2,7
So, 29.01. 21:00 1012 - 2,7
So, 29.01. 20:30 1013 - 2,7
So, 29.01. 20:00 1013 - 3,1
Ortszeit Schneehöhe (cm)
So, 29.01. 19:00 0
So, 29.01. 13:00 0
So, 29.01. 7:00 0
So, 29.01. 1:00 0
Sa, 28.01. 19:00 0
Sa, 28.01. 13:00 0
Sa, 28.01. 7:00 0
Sa, 28.01. 1:00 0
Ortszeit Schneehöhe (cm)
So, 29.01. 23:00 0
So, 29.01. 22:50 0
So, 29.01. 22:40 0
So, 29.01. 22:30 0
So, 29.01. 22:20 0
So, 29.01. 22:10 0
So, 29.01. 22:00 0
So, 29.01. 21:30 0
So, 29.01. 21:00 0
So, 29.01. 20:30 0
So, 29.01. 20:00 0
Link zu dieser Seite / Seite empfehlen

Das Wetter in ...